Terminal Aerodrome Forecast
Issued by NWS Blacksburg, VA

Current Version | Previous Version | Graphics & Text | Print | Product List | Glossary On
Versions: 1 2 3 4 5 6 7 8 9 10 11 12 13 14 15 16 17 18 19 20 21 22 23 24 25 26 27 28 29 30 31 32 33 34 35 36
000
FTUS41 KRNK 020153 AAA
TAFBLF
TAF AMD
KBLF 020153Z 0202/0224 26007KT 6SM HZ SCT035 SCT090 BKN110
     FM020600 26005KT 6SM -SHRA BKN015
     FM020800 27004KT 6SM -SHRA BR OVC008
     FM021400 26005KT P6SM VCSH OVC015
     FM021800 26007KT 6SM -SHRA BR BKN015
     FM022100 24006KT 2SM -SHRA VCTS SCT018 OVC022CB=

USA.gov is the U.S. government's official web portal to all federal, state and local government web resources and services.